createdAt,value
2017-07-02T00:00:07.802Z,7.10
2017-07-02T00:02:36.649Z,7.35
2017-07-02T00:05:06.296Z,7.00
2017-07-02T00:07:35.186Z,8.32
2017-07-02T00:10:04.064Z,8.45
2017-07-02T00:12:32.948Z,7.65
2017-07-02T00:15:01.835Z,6.90
2017-07-02T00:17:30.711Z,11.10
2017-07-02T00:20:00.351Z,6.82
2017-07-02T00:22:29.233Z,7.90
2017-07-02T00:24:58.107Z,7.82
2017-07-02T00:27:27.741Z,7.95
2017-07-02T00:29:56.616Z,8.10
2017-07-02T00:32:25.507Z,9.43
2017-07-02T00:34:54.379Z,9.73
2017-07-02T00:37:23.262Z,8.38
2017-07-02T00:39:52.147Z,14.02
2017-07-02T00:42:20.989Z,9.40
2017-07-02T00:44:49.872Z,10.10
2017-07-02T00:47:18.758Z,11.77
2017-07-02T00:49:47.660Z,11.55
2017-07-02T00:52:16.558Z,12.55
2017-07-02T00:54:45.459Z,12.43
2017-07-02T00:59:52.381Z,12.35
2017-07-02T01:02:21.288Z,15.82
2017-07-02T01:04:50.190Z,11.57
2017-07-02T01:07:19.072Z,10.25
2017-07-02T01:09:47.960Z,11.25
2017-07-02T01:12:16.839Z,10.02
2017-07-02T01:14:45.739Z,11.30
2017-07-02T01:17:14.627Z,10.48
2017-07-02T01:19:43.515Z,10.93
2017-07-02T01:22:12.407Z,13.68
2017-07-02T01:24:41.309Z,13.38
2017-07-02T01:27:10.209Z,12.65
2017-07-02T01:29:39.109Z,16.40
2017-07-02T01:32:08.807Z,17.10
2017-07-02T01:34:37.700Z,21.05
2017-07-02T01:37:06.591Z,15.50
2017-07-02T01:39:35.527Z,17.25
2017-07-02T01:42:05.084Z,19.92
2017-07-02T01:44:33.968Z,24.75
2017-07-02T01:47:02.867Z,24.17
2017-07-02T01:49:31.770Z,27.50
2017-07-02T01:52:00.669Z,29.67
2017-07-02T01:54:30.328Z,23.35
2017-07-02T01:56:58.531Z,29.15
2017-07-02T01:59:27.424Z,32.40
2017-07-02T02:02:07.558Z,29.42
2017-07-02T02:04:36.444Z,26.35
2017-07-02T02:07:05.339Z,30.00
2017-07-02T02:09:35.009Z,22.10
2017-07-02T02:12:04.681Z,27.83
2017-07-02T02:14:33.590Z,32.72
2017-07-02T02:17:02.497Z,23.65
2017-07-02T02:19:32.162Z,29.30
2017-07-02T02:22:01.064Z,25.05
2017-07-02T02:24:29.956Z,24.48
2017-07-02T02:26:58.850Z,24.37
2017-07-02T02:29:27.740Z,25.90
2017-07-02T02:31:56.698Z,28.42
2017-07-02T02:34:25.587Z,22.00
2017-07-02T02:36:54.480Z,27.20
2017-07-02T02:39:23.366Z,24.58
2017-07-02T02:41:52.257Z,24.65
2017-07-02T02:44:21.154Z,28.62
2017-07-02T02:46:50.046Z,24.02
2017-07-02T02:49:18.940Z,25.90
2017-07-02T02:51:47.834Z,23.25
2017-07-02T02:54:16.723Z,25.00
2017-07-02T02:56:45.618Z,26.15
2017-07-02T02:59:14.513Z,23.17
2017-07-02T03:01:43.409Z,29.20
2017-07-02T03:04:12.313Z,19.90
2017-07-02T03:06:41.222Z,20.95
2017-07-02T03:09:10.148Z,24.30
2017-07-02T03:11:39.056Z,25.48
2017-07-02T03:14:07.954Z,18.70
2017-07-02T03:16:36.852Z,26.90
2017-07-02T03:19:05.749Z,23.05
2017-07-02T03:21:34.650Z,27.48
2017-07-02T03:24:03.556Z,25.48
2017-07-02T03:26:32.457Z,21.20
2017-07-02T03:29:01.357Z,23.20
2017-07-02T03:31:30.257Z,24.40
2017-07-02T03:33:59.937Z,18.23
2017-07-02T03:36:28.831Z,18.83
2017-07-02T03:38:57.733Z,22.00
2017-07-02T03:41:26.627Z,19.52
2017-07-02T03:43:55.512Z,22.40
2017-07-02T03:46:24.434Z,20.00
2017-07-02T03:48:54.088Z,24.95
2017-07-02T03:51:22.980Z,18.55
2017-07-02T03:53:51.874Z,15.52
2017-07-02T03:56:20.773Z,21.33
2017-07-02T03:58:49.661Z,17.42
2017-07-02T04:01:18.556Z,20.50
2017-07-02T04:03:47.432Z,22.23
2017-07-02T04:06:16.329Z,17.62
2017-07-02T04:08:45.229Z,15.73
2017-07-02T04:11:14.129Z,15.65
2017-07-02T04:13:43.045Z,15.95
2017-07-02T04:16:11.938Z,22.55
2017-07-02T04:18:40.837Z,16.92
2017-07-02T04:21:09.737Z,23.08
2017-07-02T04:23:38.635Z,29.23
2017-07-02T04:26:08.293Z,19.60
2017-07-02T04:28:37.199Z,19.42
2017-07-02T04:31:06.103Z,21.20
2017-07-02T04:33:35.013Z,22.02
2017-07-02T04:36:03.918Z,26.42
2017-07-02T04:38:33.588Z,22.87
2017-07-02T04:41:02.480Z,19.70
2017-07-02T04:43:31.425Z,22.67
2017-07-02T04:46:00.339Z,22.50
2017-07-02T04:48:29.233Z,18.92
2017-07-02T04:50:58.130Z,22.55
2017-07-02T04:53:27.037Z,20.12
2017-07-02T04:55:55.929Z,21.42
2017-07-02T04:58:24.812Z,21.25
2017-07-02T05:00:53.718Z,26.27
2017-07-02T05:03:22.612Z,23.58
2017-07-02T05:05:51.499Z,30.20
2017-07-02T05:08:20.392Z,31.98
2017-07-02T05:10:49.293Z,19.37
2017-07-02T05:13:18.185Z,39.83
2017-07-02T05:15:47.086Z,23.77
2017-07-02T05:18:18.191Z,27.45
2017-07-02T05:20:47.097Z,23.08
2017-07-02T05:23:15.997Z,30.15
2017-07-02T05:25:44.901Z,27.70
2017-07-02T05:28:13.785Z,22.13
2017-07-02T05:30:42.682Z,34.00
2017-07-02T05:33:11.585Z,34.03
2017-07-02T05:35:41.204Z,35.53
2017-07-02T05:38:10.830Z,27.92
2017-07-02T05:40:39.722Z,29.35
2017-07-02T05:43:08.616Z,29.83
2017-07-02T05:45:37.479Z,32.80
2017-07-02T05:48:06.382Z,38.63
2017-07-02T05:50:36.043Z,27.83
2017-07-02T05:53:04.940Z,31.87
2017-07-02T05:55:33.837Z,37.55
2017-07-02T05:58:02.694Z,42.85
2017-07-02T06:00:31.244Z,30.58
2017-07-02T06:03:00.916Z,32.40
2017-07-02T06:05:29.811Z,27.95
2017-07-02T06:07:58.708Z,38.58
2017-07-02T06:10:27.608Z,29.52
2017-07-02T06:12:56.501Z,30.62
2017-07-02T06:15:25.043Z,43.90
2017-07-02T06:17:53.932Z,36.10
2017-07-02T06:20:22.834Z,28.27
2017-07-02T06:22:51.735Z,32.47
2017-07-02T06:25:20.640Z,26.17
2017-07-02T06:27:49.546Z,35.65
2017-07-02T06:30:18.402Z,24.15
2017-07-02T06:32:47.284Z,21.10
2017-07-02T06:35:15.842Z,27.98
2017-07-02T06:37:44.731Z,17.02
2017-07-02T06:40:14.395Z,27.52
2017-07-02T06:42:43.294Z,23.92
2017-07-02T06:45:12.183Z,23.95
2017-07-02T06:47:41.089Z,24.25
2017-07-02T06:50:09.990Z,18.92
2017-07-02T06:52:39.665Z,19.10
2017-07-02T06:55:08.574Z,18.60
2017-07-02T06:57:37.482Z,20.73
2017-07-02T07:00:06.385Z,19.73
2017-07-02T07:02:36.046Z,17.92
2017-07-02T07:05:04.896Z,15.95
2017-07-02T07:07:34.565Z,18.92
2017-07-02T07:10:03.461Z,17.83
2017-07-02T07:12:32.347Z,20.95
2017-07-02T07:15:01.242Z,18.48
2017-07-02T07:17:30.138Z,15.68
2017-07-02T07:19:59.025Z,20.12
2017-07-02T07:22:27.921Z,18.25
2017-07-02T07:24:56.808Z,19.87
2017-07-02T07:27:25.692Z,18.20
2017-07-02T07:29:54.587Z,20.08
2017-07-02T07:32:23.488Z,20.23
2017-07-02T07:34:52.369Z,12.77
2017-07-02T07:37:21.277Z,22.55
2017-07-02T07:39:50.176Z,15.27
2017-07-02T07:42:19.055Z,14.65
2017-07-02T07:44:47.959Z,18.85
2017-07-02T07:47:17.642Z,17.48
2017-07-02T07:49:46.544Z,21.67
2017-07-02T07:52:15.440Z,16.02
2017-07-02T07:54:44.152Z,18.87
2017-07-02T07:57:13.623Z,17.75
2017-07-02T07:59:42.518Z,18.50
2017-07-02T08:02:11.416Z,16.40
2017-07-02T08:04:40.322Z,21.60
2017-07-02T08:07:09.220Z,18.25
2017-07-02T08:09:38.117Z,22.30
2017-07-02T08:12:07.782Z,21.00
2017-07-02T08:14:36.689Z,19.58
2017-07-02T08:17:05.581Z,18.95
2017-07-02T08:19:34.485Z,21.70
2017-07-02T08:22:03.377Z,16.17
2017-07-02T08:24:32.269Z,16.27
2017-07-02T08:27:01.160Z,15.93
2017-07-02T08:29:30.043Z,12.02
2017-07-02T08:31:58.949Z,17.50
2017-07-02T08:34:28.608Z,20.33
2017-07-02T08:36:57.319Z,13.80
2017-07-02T08:39:26.209Z,17.90
2017-07-02T08:41:55.101Z,17.98
2017-07-02T08:44:24.005Z,18.02
2017-07-02T08:46:52.901Z,14.98
2017-07-02T08:49:21.795Z,13.15
2017-07-02T08:51:50.692Z,16.77
2017-07-02T08:54:19.590Z,15.52
2017-07-02T08:56:48.471Z,16.33
2017-07-02T08:59:17.355Z,17.65
2017-07-02T09:01:46.295Z,16.92
2017-07-02T09:04:15.869Z,17.35
2017-07-02T09:06:44.764Z,18.98
2017-07-02T09:09:14.424Z,17.40
2017-07-02T09:11:43.325Z,20.75
2017-07-02T09:14:12.224Z,21.95
2017-07-02T09:16:41.118Z,14.60
2017-07-02T09:19:09.999Z,20.35
2017-07-02T09:21:38.883Z,17.55
2017-07-02T09:24:07.770Z,20.62
2017-07-02T09:26:36.689Z,17.80
2017-07-02T09:29:05.590Z,14.85
2017-07-02T09:31:34.521Z,19.15
2017-07-02T09:34:03.399Z,25.77
2017-07-02T09:36:33.056Z,18.50
2017-07-02T09:39:01.954Z,15.27
2017-07-02T09:41:30.839Z,30.60
2017-07-02T09:43:59.688Z,16.08
2017-07-02T09:46:28.572Z,15.55
2017-07-02T09:48:58.238Z,19.52
2017-07-02T09:51:27.129Z,15.38
2017-07-02T09:53:56.025Z,15.73
2017-07-02T09:56:24.926Z,14.32
2017-07-02T09:58:53.819Z,18.83
2017-07-02T10:01:22.718Z,15.15
2017-07-02T10:03:51.609Z,15.23
2017-07-02T10:06:20.491Z,10.80
2017-07-02T10:08:50.157Z,8.15
2017-07-02T10:11:19.815Z,12.60
2017-07-02T10:13:48.700Z,10.10
2017-07-02T10:16:17.636Z,12.88
2017-07-02T10:18:46.507Z,8.27
2017-07-02T10:21:15.387Z,10.80
2017-07-02T10:23:44.277Z,10.70
2017-07-02T10:26:13.165Z,8.20
2017-07-02T10:28:42.024Z,13.00
2017-07-02T10:31:10.911Z,9.48
2017-07-02T10:33:39.618Z,9.45
2017-07-02T10:36:08.500Z,10.02
2017-07-02T10:38:37.389Z,16.27
2017-07-02T10:41:06.239Z,10.07
2017-07-02T10:43:35.133Z,11.05
2017-07-02T10:46:04.004Z,9.30
2017-07-02T10:48:32.947Z,8.63
2017-07-02T10:51:01.839Z,7.00
2017-07-02T10:53:30.717Z,6.65
2017-07-02T10:56:00.373Z,7.05
2017-07-02T10:58:29.245Z,7.85
2017-07-02T11:00:58.127Z,13.25
2017-07-02T11:03:26.998Z,9.23
2017-07-02T11:05:56.666Z,16.12
2017-07-02T11:08:25.551Z,9.02
2017-07-02T11:10:54.427Z,5.53
2017-07-02T11:13:23.300Z,7.37
2017-07-02T11:15:52.192Z,6.60
2017-07-02T11:18:21.089Z,16.37
2017-07-02T11:20:49.979Z,8.32
2017-07-02T11:23:18.820Z,8.18
2017-07-02T11:25:47.701Z,10.23
2017-07-02T11:28:16.598Z,7.45
2017-07-02T11:30:45.489Z,10.27
2017-07-02T11:33:14.373Z,7.82
2017-07-02T11:35:43.262Z,5.65
2017-07-02T11:38:12.156Z,8.75
2017-07-02T11:40:41.050Z,7.57
2017-07-02T11:43:09.955Z,11.93
2017-07-02T11:45:38.823Z,6.35
2017-07-02T11:48:07.727Z,14.60
2017-07-02T11:50:36.617Z,10.07
2017-07-02T11:53:05.491Z,6.95
2017-07-02T11:55:34.376Z,8.25
2017-07-02T11:58:03.259Z,11.10
2017-07-02T12:00:32.140Z,8.40
2017-07-02T12:03:00.984Z,8.80
2017-07-02T12:05:29.861Z,5.97
2017-07-02T12:07:58.754Z,8.75
2017-07-02T12:10:27.646Z,4.82
2017-07-02T12:12:56.531Z,8.57
2017-07-02T12:15:25.425Z,10.57
2017-07-02T12:17:53.620Z,8.20
2017-07-02T12:20:22.159Z,6.65
2017-07-02T12:22:50.680Z,5.70
2017-07-02T12:25:18.860Z,6.93
2017-07-02T12:27:47.384Z,7.40
2017-07-02T12:30:16.280Z,10.13
2017-07-02T12:32:44.465Z,4.40
2017-07-02T12:35:12.644Z,9.30
2017-07-02T12:37:41.526Z,6.03
2017-07-02T12:40:10.047Z,6.37
2017-07-02T12:42:38.575Z,9.00
2017-07-02T12:45:07.521Z,5.93
2017-07-02T12:47:36.413Z,8.95
2017-07-02T12:50:04.953Z,7.43
2017-07-02T12:52:33.838Z,6.03
2017-07-02T12:55:02.740Z,7.40
2017-07-02T12:57:31.611Z,6.95
2017-07-02T13:00:01.255Z,9.48
2017-07-02T13:02:30.142Z,10.15
2017-07-02T13:04:58.995Z,9.95
2017-07-02T13:07:28.642Z,9.18
2017-07-02T13:09:57.534Z,11.18
2017-07-02T13:12:26.419Z,8.48
2017-07-02T13:14:55.307Z,12.57
2017-07-02T13:17:24.189Z,6.45
2017-07-02T13:19:53.071Z,8.30
2017-07-02T13:22:22.712Z,7.20
2017-07-02T13:24:51.586Z,7.60
2017-07-02T13:27:20.452Z,4.60
2017-07-02T13:29:50.074Z,8.27
2017-07-02T13:32:19.712Z,6.62
2017-07-02T13:34:48.593Z,8.07
2017-07-02T13:37:17.480Z,7.75
2017-07-02T13:39:46.327Z,6.35
2017-07-02T13:42:15.217Z,5.37
2017-07-02T13:44:44.101Z,4.97
2017-07-02T13:47:12.983Z,3.40
2017-07-02T13:49:41.877Z,3.45
2017-07-02T13:52:10.768Z,7.12
2017-07-02T13:54:39.661Z,5.40
2017-07-02T13:57:08.548Z,5.30
2017-07-02T13:59:37.428Z,3.50
2017-07-02T14:02:06.317Z,9.20
2017-07-02T14:04:35.196Z,5.18
2017-07-02T14:07:04.091Z,4.18
2017-07-02T14:09:32.971Z,4.30
2017-07-02T14:12:01.839Z,6.57
2017-07-02T14:14:31.480Z,7.30
2017-07-02T14:17:00.353Z,7.07
2017-07-02T14:19:29.232Z,3.55
2017-07-02T14:21:58.868Z,6.43
2017-07-02T14:24:27.745Z,9.05
2017-07-02T14:26:56.626Z,3.50
2017-07-02T14:29:26.265Z,5.80
2017-07-02T14:31:55.103Z,9.95
2017-07-02T14:34:23.994Z,4.93
2017-07-02T14:36:52.865Z,6.30
2017-07-02T14:39:21.718Z,5.45
2017-07-02T14:41:50.601Z,3.40
2017-07-02T14:44:19.505Z,3.95
2017-07-02T14:46:48.398Z,4.05
2017-07-02T14:49:17.278Z,8.18
2017-07-02T14:51:46.935Z,5.82
2017-07-02T14:54:15.793Z,9.38
2017-07-02T14:56:44.722Z,6.18
2017-07-02T14:59:13.615Z,4.45
2017-07-02T15:01:42.496Z,6.65
2017-07-02T15:04:11.389Z,7.07
2017-07-02T15:06:40.289Z,6.12
2017-07-02T15:09:09.172Z,4.10
2017-07-02T15:11:38.063Z,3.87
2017-07-02T15:14:06.957Z,7.00
2017-07-02T15:16:35.848Z,5.68
2017-07-02T15:19:04.728Z,7.87
2017-07-02T15:21:33.610Z,7.37
2017-07-02T15:24:02.486Z,6.10
2017-07-02T15:26:31.330Z,5.70
2017-07-02T15:29:00.209Z,5.82
2017-07-02T15:31:29.092Z,5.15
2017-07-02T15:33:57.997Z,6.95
2017-07-02T15:36:26.886Z,5.22
2017-07-02T15:38:55.778Z,4.78
2017-07-02T15:41:24.672Z,14.40
2017-07-02T15:43:53.558Z,7.47
2017-07-02T15:46:22.446Z,5.75
2017-07-02T15:48:51.328Z,6.00
2017-07-02T15:51:20.209Z,3.90
2017-07-02T15:53:49.087Z,4.53
2017-07-02T15:56:17.973Z,4.82
2017-07-02T15:58:46.870Z,9.13
2017-07-02T16:01:15.754Z,5.22
2017-07-02T16:03:44.647Z,4.65
2017-07-02T16:06:13.504Z,4.05
2017-07-02T16:08:42.379Z,4.97
2017-07-02T16:11:11.257Z,5.75
2017-07-02T16:13:40.155Z,7.95
2017-07-02T16:16:09.044Z,10.48
2017-07-02T16:18:37.985Z,6.28
2017-07-02T16:21:07.647Z,7.20
2017-07-02T16:23:36.572Z,6.40
2017-07-02T16:26:06.233Z,6.87
2017-07-02T16:28:35.119Z,5.35
2017-07-02T16:31:04.011Z,7.93
2017-07-02T16:33:32.888Z,5.35
2017-07-02T16:36:01.781Z,6.15
2017-07-02T16:38:30.669Z,10.73
2017-07-02T16:40:59.565Z,7.62
2017-07-02T16:43:28.440Z,4.35
2017-07-02T16:45:57.330Z,5.18
2017-07-02T16:48:27.012Z,9.07
2017-07-02T16:50:55.853Z,8.82
2017-07-02T16:53:24.719Z,5.35
2017-07-02T16:55:54.382Z,6.43
2017-07-02T16:58:23.278Z,7.80
2017-07-02T17:00:52.163Z,8.52
2017-07-02T17:03:21.056Z,9.48
2017-07-02T17:05:49.950Z,5.65
2017-07-02T17:08:18.810Z,6.50
2017-07-02T17:10:47.690Z,6.00
2017-07-02T17:13:16.563Z,5.45
2017-07-02T17:15:45.444Z,4.35
2017-07-02T17:18:14.133Z,5.30
2017-07-02T17:20:43.777Z,9.10
2017-07-02T17:23:12.657Z,4.95
2017-07-02T17:25:41.558Z,8.60
2017-07-02T17:28:10.445Z,5.62
2017-07-02T17:30:39.324Z,7.40
2017-07-02T17:33:08.966Z,5.78
2017-07-02T17:35:37.850Z,7.78
2017-07-02T17:38:06.745Z,4.65
2017-07-02T17:40:35.621Z,8.05
2017-07-02T17:43:04.505Z,12.45
2017-07-02T17:45:34.146Z,4.68
2017-07-02T17:48:03.018Z,8.55
2017-07-02T17:50:31.897Z,6.72
2017-07-02T17:53:00.753Z,8.20
2017-07-02T17:55:29.631Z,9.07
2017-07-02T17:57:58.509Z,6.32
2017-07-02T18:00:27.381Z,5.93
2017-07-02T18:02:56.257Z,6.60
2017-07-02T18:05:25.136Z,6.15
2017-07-02T18:07:54.801Z,5.57
2017-07-02T18:10:23.700Z,7.10
2017-07-02T18:12:52.579Z,6.40
2017-07-02T18:15:21.432Z,8.55
2017-07-02T18:17:50.116Z,5.47
2017-07-02T18:20:19.001Z,7.43
2017-07-02T18:22:48.650Z,6.00
2017-07-02T18:25:17.529Z,8.90
2017-07-02T18:27:46.396Z,5.12
2017-07-02T18:30:16.057Z,7.03
2017-07-02T18:32:44.946Z,9.77
2017-07-02T18:35:13.827Z,6.75
2017-07-02T18:37:42.726Z,10.40
2017-07-02T18:40:11.610Z,5.90
2017-07-02T18:42:40.489Z,8.95
2017-07-02T18:45:09.378Z,9.95
2017-07-02T18:47:38.261Z,7.70
2017-07-02T18:50:07.155Z,15.00
2017-07-02T18:52:36.051Z,9.65
2017-07-02T18:55:04.944Z,14.60
2017-07-02T18:57:33.837Z,9.15
2017-07-02T19:00:02.733Z,13.50
2017-07-02T19:02:31.612Z,9.30
2017-07-02T19:05:00.517Z,7.93
2017-07-02T19:07:29.418Z,9.98
2017-07-02T19:09:58.292Z,8.15
2017-07-02T19:12:27.172Z,7.87
2017-07-02T19:14:56.017Z,10.43
2017-07-02T19:17:24.918Z,13.93
2017-07-02T19:19:53.766Z,8.02
2017-07-02T19:22:22.648Z,9.93
2017-07-02T19:24:51.532Z,9.82
2017-07-02T19:27:20.426Z,8.88
2017-07-02T19:29:49.300Z,7.70
2017-07-02T19:32:18.960Z,8.60
2017-07-02T19:34:47.840Z,9.93
2017-07-02T19:37:16.736Z,11.23
2017-07-02T19:39:45.641Z,12.82
2017-07-02T19:44:52.539Z,10.85
2017-07-02T19:47:21.427Z,9.38
2017-07-02T19:49:50.322Z,8.52
2017-07-02T19:52:20.172Z,8.85
2017-07-02T19:54:49.055Z,13.60
2017-07-02T19:57:17.944Z,7.30
2017-07-02T19:59:47.605Z,13.93
2017-07-02T20:02:16.582Z,8.25
2017-07-02T20:04:45.468Z,7.72
2017-07-02T20:07:14.351Z,10.70
2017-07-02T20:09:43.245Z,12.90
2017-07-02T20:12:12.903Z,7.85
2017-07-02T20:14:41.780Z,9.30
2017-07-02T20:17:10.678Z,10.27
2017-07-02T20:19:39.582Z,11.18
2017-07-02T20:22:08.459Z,6.60
2017-07-02T20:24:37.342Z,7.15
2017-07-02T20:27:06.224Z,8.02
2017-07-02T20:29:35.107Z,8.18
2017-07-02T20:32:04.012Z,11.52
2017-07-02T20:34:32.919Z,10.07
2017-07-02T20:37:01.803Z,8.55
2017-07-02T20:39:30.693Z,8.18
2017-07-02T20:41:59.572Z,6.22
2017-07-02T20:44:28.451Z,7.10
2017-07-02T20:46:57.344Z,7.03
2017-07-02T20:49:26.229Z,7.00
2017-07-02T20:51:55.882Z,6.28
2017-07-02T20:54:24.773Z,9.02
2017-07-02T20:56:53.664Z,5.85
2017-07-02T20:59:22.547Z,10.38
2017-07-02T21:01:51.236Z,7.80
2017-07-02T21:04:20.121Z,8.63
2017-07-02T21:06:48.999Z,7.22
2017-07-02T21:09:17.886Z,6.55
2017-07-02T21:11:46.763Z,6.55
2017-07-02T21:14:16.421Z,8.73
2017-07-02T21:16:45.339Z,10.82
2017-07-02T21:19:14.222Z,9.63
2017-07-02T21:21:43.075Z,8.98
2017-07-02T21:24:11.952Z,8.38
2017-07-02T21:26:41.256Z,9.18
2017-07-02T21:29:10.178Z,12.60
2017-07-02T21:31:39.076Z,13.73
2017-07-02T21:34:08.775Z,14.93
2017-07-02T21:36:37.660Z,9.90
2017-07-02T21:39:06.617Z,13.73
2017-07-02T21:41:35.509Z,11.50
2017-07-02T21:44:04.393Z,9.77
2017-07-02T21:46:34.729Z,11.57
2017-07-02T21:49:03.618Z,9.15
2017-07-02T21:51:32.506Z,21.65
2017-07-02T21:54:01.409Z,12.50
2017-07-02T21:56:30.281Z,9.27
2017-07-02T21:58:59.936Z,16.20
2017-07-02T22:01:28.812Z,9.63
2017-07-02T22:03:57.708Z,8.30
2017-07-02T22:06:26.581Z,9.85
2017-07-02T22:08:56.229Z,7.80
2017-07-02T22:11:25.119Z,12.37
2017-07-02T22:13:53.993Z,9.23
2017-07-02T22:16:22.872Z,8.90
2017-07-02T22:18:51.774Z,14.15
2017-07-02T22:21:20.662Z,7.87
2017-07-02T22:23:49.545Z,11.15
2017-07-02T22:26:18.446Z,15.15
2017-07-02T22:28:47.332Z,9.70
2017-07-02T22:31:16.217Z,10.00
2017-07-02T22:33:45.090Z,9.77
2017-07-02T22:36:14.751Z,14.60
2017-07-02T22:38:43.635Z,11.55
2017-07-02T22:41:12.490Z,10.77
2017-07-02T22:43:41.377Z,7.03
2017-07-02T22:46:10.268Z,9.73
2017-07-02T22:48:39.934Z,11.52
2017-07-02T22:51:08.827Z,15.00
2017-07-02T22:53:37.726Z,10.75
2017-07-02T22:56:13.084Z,8.15
2017-07-02T22:58:41.942Z,10.65
2017-07-02T23:01:10.907Z,8.02
2017-07-02T23:03:39.787Z,8.20
2017-07-02T23:06:08.684Z,9.32
2017-07-02T23:08:37.575Z,8.05
2017-07-02T23:11:06.470Z,10.30
2017-07-02T23:13:35.359Z,11.38
2017-07-02T23:16:05.011Z,7.50
2017-07-02T23:18:33.858Z,8.50
2017-07-02T23:21:02.732Z,9.23
2017-07-02T23:23:31.614Z,9.63
2017-07-02T23:26:00.491Z,8.52
2017-07-02T23:28:29.387Z,12.90
2017-07-02T23:30:58.258Z,8.00
2017-07-02T23:33:27.132Z,8.55
2017-07-02T23:35:56.021Z,9.07
2017-07-02T23:38:24.910Z,6.65
2017-07-02T23:40:53.789Z,8.55
2017-07-02T23:43:22.676Z,7.35
2017-07-02T23:45:51.556Z,6.85
2017-07-02T23:48:20.442Z,6.90
2017-07-02T23:50:50.089Z,8.10
2017-07-02T23:53:18.975Z,8.68
2017-07-02T23:55:47.856Z,7.87
2017-07-02T23:58:16.742Z,8.00
